createdAt,value
2023-04-28T00:06:11.239Z,12.60
2023-04-28T00:13:11.677Z,12.50
2023-04-28T00:20:12.382Z,12.60
2023-04-28T00:27:12.782Z,12.50
2023-04-28T00:34:15.078Z,12.50
2023-04-28T00:41:15.574Z,12.40
2023-04-28T00:48:16.645Z,12.40
2023-04-28T00:55:17.178Z,12.30
2023-04-28T01:02:18.542Z,12.20
2023-04-28T01:09:19.330Z,12.20
2023-04-28T01:16:19.909Z,12.20
2023-04-28T01:23:20.436Z,12.10
2023-04-28T01:30:21.087Z,12.00
2023-04-28T01:37:21.636Z,12.00
2023-04-28T01:44:22.126Z,11.90
2023-04-28T01:51:22.604Z,11.80
2023-04-28T01:58:23.054Z,11.80
2023-04-28T02:05:23.409Z,11.70
2023-04-28T02:12:25.367Z,11.70
2023-04-28T02:19:25.506Z,11.70
2023-04-28T02:26:25.897Z,11.60
2023-04-28T02:33:26.730Z,11.60
2023-04-28T02:40:27.129Z,11.50
2023-04-28T02:47:27.840Z,11.40
2023-04-28T02:54:28.535Z,11.30
2023-04-28T03:01:30.087Z,11.20
2023-04-28T03:08:30.255Z,11.10
2023-04-28T03:15:30.824Z,11.00
2023-04-28T03:22:31.799Z,11.00
2023-04-28T03:29:32.173Z,10.90
2023-04-28T03:36:33.104Z,10.90
2023-04-28T03:43:41.247Z,10.90
2023-04-28T03:51:02.008Z,10.90
2023-04-28T03:58:02.912Z,10.80
2023-04-28T04:05:03.792Z,10.70
2023-04-28T04:12:04.684Z,10.60
2023-04-28T04:19:05.174Z,10.50
2023-04-28T04:26:15.970Z,10.50
2023-04-28T04:33:16.472Z,10.60
2023-04-28T04:40:16.852Z,10.60
2023-04-28T04:47:22.810Z,10.70
2023-04-28T04:54:24.205Z,10.80
2023-04-28T05:01:25.745Z,10.80
2023-04-28T05:08:26.636Z,10.80
2023-04-28T05:15:26.703Z,10.80
2023-04-28T05:22:50.806Z,10.80
2023-04-28T05:29:51.522Z,10.80
2023-04-28T05:36:52.761Z,10.80
2023-04-28T05:43:56.682Z,10.90
2023-04-28T05:50:57.233Z,10.90
2023-04-28T05:57:59.753Z,10.90
2023-04-28T06:05:01.276Z,10.90
2023-04-28T06:12:03.877Z,10.90
2023-04-28T06:19:04.854Z,11.00
2023-04-28T06:26:05.706Z,11.00
2023-04-28T06:33:06.175Z,11.10
2023-04-28T06:40:07.269Z,11.10
2023-04-28T06:47:08.800Z,11.20
2023-04-28T06:54:12.276Z,11.30
2023-04-28T07:01:17.391Z,11.50
2023-04-28T07:08:17.838Z,11.60
2023-04-28T07:15:18.635Z,11.70
2023-04-28T07:22:18.908Z,11.80
2023-04-28T07:29:19.448Z,12.00
2023-04-28T07:36:19.884Z,12.10
2023-04-28T07:43:20.377Z,12.10
2023-04-28T07:50:21.126Z,12.10
2023-04-28T07:57:21.648Z,12.10
2023-04-28T08:04:22.809Z,12.20
2023-04-28T08:11:23.753Z,12.50
2023-04-28T08:18:25.048Z,12.70
2023-04-28T08:25:25.697Z,12.90
2023-04-28T08:32:26.393Z,13.00
2023-04-28T08:39:27.091Z,13.10
2023-04-28T08:46:29.003Z,13.30
2023-04-28T08:53:30.065Z,13.40
2023-04-28T09:00:30.280Z,13.50
2023-04-28T09:07:30.743Z,13.70
2023-04-28T09:14:33.819Z,13.90
2023-04-28T09:21:47.005Z,13.90
2023-04-28T09:28:47.411Z,14.00
2023-04-28T09:35:48.527Z,14.10
2023-04-28T09:42:48.887Z,14.20
2023-04-28T09:50:00.284Z,14.20
2023-04-28T09:57:00.980Z,14.20
2023-04-28T10:04:02.847Z,14.10
2023-04-28T10:11:03.486Z,14.00
2023-04-28T10:18:05.362Z,13.80
2023-04-28T10:25:08.299Z,13.70
2023-04-28T10:32:26.438Z,13.70
2023-04-28T10:39:26.901Z,13.80
2023-04-28T10:46:27.298Z,13.90
2023-04-28T10:53:43.233Z,13.90
2023-04-28T11:00:45.362Z,14.00
2023-04-28T11:08:24.460Z,14.10
2023-04-28T11:15:24.559Z,14.40
2023-04-28T11:22:25.419Z,14.70
2023-04-28T11:29:39.470Z,15.00
2023-04-28T11:36:41.483Z,15.30
2023-04-28T11:43:47.383Z,15.60
2023-04-28T11:50:48.738Z,15.70
2023-04-28T11:57:49.090Z,16.00
2023-04-28T12:04:50.610Z,16.20
2023-04-28T12:11:59.130Z,16.60
2023-04-28T12:19:00.155Z,17.00
2023-04-28T12:26:01.523Z,17.50
2023-04-28T12:33:02.145Z,18.00
2023-04-28T12:40:04.506Z,18.30
2023-04-28T12:47:10.627Z,18.50
2023-04-28T12:54:10.829Z,18.70
2023-04-28T13:01:11.210Z,19.30
2023-04-28T13:08:12.784Z,19.70
2023-04-28T13:15:12.984Z,20.00
2023-04-28T13:22:13.645Z,20.10
2023-04-28T13:29:14.405Z,19.90
2023-04-28T13:36:14.966Z,19.50
2023-04-28T13:43:15.342Z,19.90
2023-04-28T13:50:15.859Z,20.70
2023-04-28T13:57:16.012Z,21.40
2023-04-28T14:04:16.471Z,22.00
2023-04-28T14:11:16.773Z,21.80
2023-04-28T14:18:17.501Z,21.40
2023-04-28T14:25:21.452Z,21.20
2023-04-28T14:32:22.110Z,21.60
2023-04-28T14:39:23.273Z,22.50
2023-04-28T14:46:24.010Z,22.10
2023-04-28T14:53:24.880Z,21.80
2023-04-28T15:00:25.067Z,21.30
2023-04-28T15:07:31.362Z,20.80
2023-04-28T15:14:31.672Z,21.20
2023-04-28T15:21:32.517Z,21.50
2023-04-28T15:28:32.813Z,20.80
2023-04-28T15:35:33.596Z,20.80
2023-04-28T15:42:34.068Z,20.50
2023-04-28T15:49:34.302Z,20.90
2023-04-28T15:56:34.717Z,20.20
2023-04-28T16:03:35.200Z,19.30
2023-04-28T16:10:35.887Z,18.80
2023-04-28T16:17:38.004Z,18.30
2023-04-28T16:24:42.481Z,18.20
2023-04-28T16:31:44.442Z,17.70
2023-04-28T16:38:46.542Z,17.40
2023-04-28T16:45:47.485Z,17.50
2023-04-28T16:52:48.321Z,17.30
2023-04-28T16:59:48.817Z,17.00
2023-04-28T17:06:52.846Z,16.70
2023-04-28T17:13:52.966Z,16.50
2023-04-28T17:20:53.673Z,16.30
2023-04-28T17:27:53.933Z,16.20
2023-04-28T17:34:54.564Z,16.10
2023-04-28T17:41:57.564Z,16.00
2023-04-28T17:48:59.545Z,15.90
2023-04-28T17:56:03.279Z,15.70
2023-04-28T18:03:03.729Z,15.70
2023-04-28T18:10:04.080Z,15.60
2023-04-28T18:17:04.487Z,15.60
2023-04-28T18:24:04.871Z,15.50
2023-04-28T18:31:06.234Z,15.40
2023-04-28T18:38:07.162Z,15.20
2023-04-28T18:45:08.909Z,15.20
2023-04-28T18:52:09.512Z,15.20
2023-04-28T18:59:10.707Z,15.10
2023-04-28T19:06:11.835Z,15.10
2023-04-28T19:13:12.236Z,15.00
2023-04-28T19:20:13.367Z,15.00
2023-04-28T19:27:13.315Z,15.00
2023-04-28T19:34:13.765Z,15.00
2023-04-28T19:41:14.556Z,15.00
2023-04-28T19:48:14.964Z,15.00
2023-04-28T19:55:18.400Z,15.00
2023-04-28T20:02:20.236Z,15.00
2023-04-28T20:09:21.176Z,15.00
2023-04-28T20:16:24.761Z,15.00
2023-04-28T20:23:24.923Z,15.00
2023-04-28T20:30:26.605Z,14.90
2023-04-28T20:37:27.160Z,14.90
2023-04-28T20:44:27.571Z,14.80
2023-04-28T20:51:33.551Z,14.80
2023-04-28T20:58:35.227Z,14.60
2023-04-28T21:05:35.804Z,14.60
2023-04-28T21:12:36.649Z,14.50
2023-04-28T21:19:37.465Z,14.50
2023-04-28T21:26:38.088Z,14.30
2023-04-28T21:33:38.427Z,14.20
2023-04-28T21:40:38.988Z,14.20
2023-04-28T21:47:41.373Z,13.90
2023-04-28T21:54:43.077Z,13.60
2023-04-28T22:01:43.713Z,13.30
2023-04-28T22:08:46.070Z,13.10
2023-04-28T22:15:46.496Z,13.10
2023-04-28T22:22:46.959Z,13.00
2023-04-28T22:29:47.668Z,13.00
2023-04-28T22:36:47.952Z,13.00
2023-04-28T22:43:48.297Z,13.00
2023-04-28T22:50:49.333Z,13.00
2023-04-28T22:57:49.614Z,13.00
2023-04-28T23:04:50.453Z,12.90
2023-04-28T23:11:51.206Z,12.90
2023-04-28T23:18:51.787Z,12.90
2023-04-28T23:25:52.116Z,12.90
2023-04-28T23:32:52.491Z,12.50
2023-04-28T23:39:53.159Z,12.30
2023-04-28T23:46:55.998Z,12.10
2023-04-28T23:53:56.893Z,12.10
